| time (UTC) | temp C | wind direction | speed KPH | gust KPH | rain 1hr cm | rain 24hr cm | rain mn cm | humidity % | barometer mb |
| 20260903010049 | 28 | 182 | 1.6 | 6.4 | 0.00 | 0.00 | 0.00 | 69 | 1013.2 |
| 20260903004532 | 29 | 205 | 1.6 | 6.4 | 0.00 | 0.00 | 0.00 | 68 | 1013.1 |
| 20260903003037 | 29 | 210 | 3.2 | 6.4 | 0.00 | 0.00 | 0.00 | 68 | 1013.1 |
| 20260903001557 | 29 | 221 | 1.6 | 6.4 | 0.00 | 0.00 | 0.00 | 67 | 1013.0 |
| 20260903000021 | 30 | 201 | 1.6 | 6.4 | 0.00 | 0.00 | 0.00 | 66 | 1013.0 |
| 20260902234516 | 30 | 217 | 1.6 | 9.7 | 0.00 | 0.00 | 0.00 | 65 | 1012.9 |
| 20260902233002 | 31 | 233 | 4.8 | 12.9 | 0.00 | 0.00 | 0.00 | 63 | 1012.9 |
| 20260902231606 | 31 | 229 | 4.8 | 16.1 | 0.00 | 0.00 | 0.00 | 62 | 1012.9 |
| 20260902230125 | 31 | 211 | 4.8 | 12.9 | 0.00 | 0.00 | 0.00 | 61 | 1013.0 |
| 20260902224559 | 32 | 222 | 11.3 | 16.1 | 0.00 | 0.00 | 0.00 | 59 | 1013.0 |
| 20260902223057 | 32 | 218 | 9.7 | 14.5 | 0.00 | 0.00 | 0.00 | 59 | 1013.1 |
| 20260902221557 | 32 | 263 | 9.7 | 19.3 | 0.00 | 0.00 | 0.00 | 57 | 1013.1 |
| 20260902220057 | 32 | 221 | 8.0 | 16.1 | 0.00 | 0.00 | 0.00 | 57 | 1013.1 |
| 20260902214537 | 32 | 211 | 9.7 | 17.7 | 0.00 | 0.00 | 0.00 | 56 | 1013.1 |
| 20260902213047 | 33 | 213 | 9.7 | 19.3 | 0.00 | 0.00 | 0.00 | 56 | 1013.2 |
| 20260902211543 | 33 | 256 | 8.0 | 16.1 | 0.00 | 0.00 | 0.00 | 56 | 1013.3 |
| 20260902210052 | 33 | 204 | 9.7 | 14.5 | 0.00 | 0.00 | 0.00 | 57 | 1013.3 |
| 20260902204531 | 32 | 224 | 4.8 | 17.7 | 0.00 | 0.00 | 0.00 | 58 | 1013.5 |
| 20260902203030 | 32 | 219 | 9.7 | 20.9 | 0.00 | 0.00 | 0.00 | 55 | 1013.5 |
| 20260902201521 | 33 | 273 | 9.7 | 16.1 | 0.00 | 0.00 | 0.00 | 55 | 1013.7 |
| 20260902200010 | 32 | 197 | 6.4 | 12.9 | 0.00 | 0.00 | 0.00 | 57 | 1014.0 |
| 20260902194512 | 33 | 260 | 8.0 | 16.1 | 0.00 | 0.00 | 0.00 | 54 | 1014.1 |
| 20260902193012 | 32 | 234 | 6.4 | 16.1 | 0.00 | 0.00 | 0.00 | 56 | 1014.3 |
| 20260902191519 | 32 | 261 | 9.7 | 16.1 | 0.00 | 0.00 | 0.00 | 56 | 1014.3 |
| 20260902190129 | 32 | 269 | 12.9 | 19.3 | 0.00 | 0.00 | 0.00 | 53 | 1014.5 |
| 20260902184607 | 32 | 198 | 8.0 | 16.1 | 0.00 | 0.00 | 0.00 | 56 | 1014.6 |
| 20260902183051 | 31 | 228 | 6.4 | 12.9 | 0.00 | 0.00 | 0.00 | 58 | 1014.7 |
| 20260902181549 | 32 | 245 | 9.7 | 19.3 | 0.00 | 0.00 | 0.00 | 58 | 1014.8 |
| 20260902180045 | 32 | 232 | 9.7 | 19.3 | 0.00 | 0.00 | 0.00 | 54 | 1014.9 |
| 20260902174520 | 32 | 193 | 8.0 | 16.1 | 0.00 | 0.00 | 0.00 | 57 | 1015.0 |
| 20260902173032 | 32 | 246 | 6.4 | 17.7 | 0.00 | 0.00 | 0.00 | 58 | 1015.2 |
| 20260902171521 | 32 | 210 | 11.3 | 19.3 | 0.00 | 0.00 | 0.00 | 59 | 1015.5 |
| 20260902170006 | 31 | 295 | 4.8 | 11.3 | 0.00 | 0.00 | 0.00 | 61 | 1015.5 |
| 20260902164507 | 31 | 229 | 4.8 | 12.9 | 0.00 | 0.00 | 0.00 | 59 | 1015.5 |
| 20260902163004 | 31 | 221 | 8.0 | 14.5 | 0.00 | 0.00 | 0.00 | 59 | 1015.6 |
| 20260902161517 | 31 | 244 | 6.4 | 12.9 | 0.00 | 0.00 | 0.00 | 61 | 1015.5 |
| 20260902160103 | 31 | 259 | 6.4 | 11.3 | 0.00 | 0.00 | 0.00 | 61 | 1015.5 |
| 20260902154540 | 31 | 289 | 6.4 | 12.9 | 0.00 | 0.00 | 0.00 | 62 | 1015.7 |
| 20260902153038 | 30 | 273 | 4.8 | 9.7 | 0.00 | 0.00 | 0.00 | 63 | 1015.8 |
| 20260902151536 | 30 | 277 | 4.8 | 11.3 | 0.00 | 0.00 | 0.00 | 64 | 1015.7 |
| 20260902150022 | 29 | 259 | 4.8 | 9.7 | 0.00 | 0.00 | 0.00 | 66 | 1015.8 |
| 20260902144524 | 29 | 273 | 6.4 | 12.9 | 0.00 | 0.00 | 0.00 | 66 | 1015.7 |
| 20260902143030 | 28 | 292 | 4.8 | 11.3 | 0.00 | 0.00 | 0.00 | 67 | 1016.0 |
| 20260902141530 | 28 | 256 | 3.2 | 9.7 | 0.00 | 0.00 | 0.00 | 69 | 1015.8 |
| 20260902140122 | 27 | 258 | 4.8 | 9.7 | 0.00 | 0.00 | 0.00 | 70 | 1015.9 |
| 20260902134603 | 27 | 236 | 4.8 | 11.3 | 0.00 | 0.00 | 0.00 | 70 | 1015.8 |
| 20260902133051 | 27 | 248 | 3.2 | 9.7 | 0.00 | 0.00 | 0.00 | 72 | 1015.8 |
| 20260902131548 | 26 | 246 | 3.2 | 12.9 | 0.00 | 0.00 | 0.00 | 73 | 1016.0 |
| 20260902130015 | 26 | 253 | 6.4 | 11.3 | 0.00 | 0.00 | 0.00 | 73 | 1015.8 |
| 20260902124517 | 25 | 238 | 4.8 | 9.7 | 0.00 | 0.00 | 0.00 | 75 | 1015.9 |
| 20260902123011 | 25 | 233 | 3.2 | 8.0 | 0.00 | 0.00 | 0.00 | 76 | 1015.7 |
| 20260902120105 | 25 | 219 | 1.6 | 11.3 | 0.00 | 0.00 | 0.00 | 77 | 1015.7 |
| 20260902114548 | 24 | 208 | 3.2 | 8.0 | 0.00 | 0.00 | 0.00 | 76 | 1015.5 |
| 20260902113044 | 25 | 197 | 1.6 | 8.0 | 0.00 | 0.00 | 0.00 | 75 | 1015.2 |
| 20260902111538 | 25 | 246 | 3.2 | 8.0 | 0.00 | 0.00 | 0.00 | 75 | 1015.2 |
| 20260902110008 | 25 | 217 | 4.8 | 12.9 | 0.00 | 0.00 | 0.00 | 74 | 1015.0 |
| 20260902104512 | 25 | 188 | 3.2 | 11.3 | 0.00 | 0.00 | 0.00 | 74 | 1015.1 |
| 20260902103100 | 25 | 201 | 6.4 | 12.9 | 0.00 | 0.00 | 0.00 | 73 | 1015.0 |
| 20260902101604 | 25 | 213 | 8.0 | 11.3 | 0.00 | 0.00 | 0.00 | 74 | 1014.9 |
| 20260902100057 | 25 | 229 | 3.2 | 8.0 | 0.00 | 0.00 | 0.00 | 74 | 1014.9 |
| 20260902094544 | 25 | 204 | 3.2 | 9.7 | 0.00 | 0.00 | 0.00 | 75 | 1015.0 |
| 20260902093038 | 25 | 194 | 3.2 | 6.4 | 0.00 | 0.00 | 0.00 | 76 | 1015.0 |
| 20260902091531 | 25 | 196 | 0.0 | 6.4 | 0.00 | 0.00 | 0.00 | 76 | 1014.8 |
| 20260902090010 | 25 | 193 | 3.2 | 8.0 | 0.00 | 0.00 | 0.00 | 77 | 1014.7 |
| 20260902084518 | 24 | 196 | 1.6 | 4.8 | 0.00 | 0.00 | 0.00 | 77 | 1014.7 |
| 20260902083014 | 25 | 182 | 1.6 | 6.4 | 0.00 | 0.00 | 0.00 | 77 | 1014.7 |
| 20260902081616 | 25 | 191 | 0.0 | 6.4 | 0.00 | 0.00 | 0.00 | 76 | 1014.6 |
| 20260902080106 | 25 | 224 | 0.0 | 3.2 | 0.00 | 0.00 | 0.00 | 76 | 1014.5 |
| 20260902074608 | 25 | 227 | 0.0 | 3.2 | 0.00 | 0.00 | 0.00 | 77 | 1014.4 |
| 20260902073052 | 25 | 220 | 1.6 | 4.8 | 0.00 | 0.00 | 0.00 | 77 | 1014.3 |
| 20260902071548 | 25 | 225 | 1.6 | 4.8 | 0.00 | 0.00 | 0.00 | 77 | 1014.3 |
| 20260902070044 | 25 | 223 | 3.2 | 4.8 | 0.00 | 0.00 | 0.00 | 76 | 1014.3 |
| 20260902064525 | 25 | 234 | 1.6 | 8.0 | 0.00 | 0.00 | 0.00 | 76 | 1014.3 |
| 20260902063036 | 25 | 188 | 3.2 | 9.7 | 0.00 | 0.00 | 0.00 | 75 | 1014.4 |
| 20260902061520 | 25 | 246 | 3.2 | 8.0 | 0.00 | 0.00 | 0.00 | 75 | 1014.5 |
| 20260902060006 | 25 | 225 | 3.2 | 4.8 | 0.00 | 0.00 | 0.00 | 74 | 1014.6 |
| 20260902054612 | 26 | 222 | 3.2 | 8.0 | 0.00 | 0.00 | 0.00 | 73 | 1014.6 |
| 20260902053001 | 26 | 196 | 4.8 | 9.7 | 0.00 | 0.00 | 0.00 | 72 | 1014.5 |
| 20260902051505 | 26 | 217 | 3.2 | 9.7 | 0.00 | 0.00 | 0.00 | 72 | 1014.4 |
| 20260902050111 | 26 | 230 | 4.8 | 11.3 | 0.00 | 0.00 | 0.00 | 72 | 1014.5 |
| 20260902044553 | 27 | 196 | 4.8 | 11.3 | 0.00 | 0.00 | 0.00 | 72 | 1014.5 |
| 20260902043107 | 27 | 198 | 6.4 | 11.3 | 0.00 | 0.00 | 0.00 | 71 | 1014.5 |
| 20260902041602 | 27 | 214 | 4.8 | 11.3 | 0.00 | 0.00 | 0.00 | 71 | 1014.6 |
| 20260902040047 | 27 | 189 | 3.2 | 6.4 | 0.00 | 0.00 | 0.00 | 71 | 1014.6 |
| 20260902034533 | 27 | 215 | 3.2 | 8.0 | 0.00 | 0.00 | 0.00 | 71 | 1014.4 |
| 20260902033030 | 27 | 217 | 3.2 | 9.7 | 0.00 | 0.00 | 0.00 | 70 | 1014.5 |
| 20260902031529 | 27 | 200 | 3.2 | 8.0 | 0.00 | 0.00 | 0.00 | 71 | 1014.4 |
| 20260902030011 | 27 | 210 | 4.8 | 9.7 | 0.00 | 0.00 | 0.00 | 71 | 1014.5 |
| 20260902024513 | 28 | 179 | 4.8 | 11.3 | 0.00 | 0.00 | 0.00 | 70 | 1014.5 |
| 20260902023009 | 28 | 232 | 3.2 | 9.7 | 0.00 | 0.00 | 0.00 | 70 | 1014.6 |
| 20260902021506 | 28 | 217 | 4.8 | 8.0 | 0.00 | 0.00 | 0.00 | 70 | 1014.4 |
| 20260902020100 | 28 | 205 | 1.6 | 8.0 | 0.00 | 0.00 | 0.00 | 70 | 1014.3 |
| 20260902014550 | 28 | 191 | 4.8 | 9.7 | 0.00 | 0.00 | 0.00 | 70 | 1014.2 |
| 20260902013052 | 28 | 192 | 3.2 | 9.7 | 0.00 | 0.00 | 0.00 | 70 | 1014.2 |
| 20260902011539 | 28 | 198 | 3.2 | 9.7 | 0.00 | 0.00 | 0.00 | 70 | 1014.0 |